Time;durP1;ratioP1;P1;durP2;ratioP2;P2;SDS_P1;SDS_P2;PMS_P1;PMS_P2;Temp;Humidity;BMP_temperature;BMP_pressure;BME280_temperature;BME280_humidity;BME280_pressure;Samples;Min_cycle;Max_cycle;Signal;HPM_P1;HPM_P2
2024/01/08 00:00:40;;;;;;;189.80;16.30;;;;;;;-2.07;100.00;98376.41;4995120;28;20095;-58
2024/01/08 00:03:06;;;;;;;82.03;34.13;;;;;;;-2.13;100.00;98378.63;5000324;28;20184;-57
2024/01/08 00:05:31;;;;;;;174.93;76.55;;;;;;;-2.02;100.00;98379.19;5001122;28;20037;-56
2024/01/08 00:07:56;;;;;;;105.22;11.38;;;;;;;-1.94;100.00;98377.91;4999057;28;20018;-57
2024/01/08 00:10:22;;;;;;;69.85;8.02;;;;;;;-1.84;100.00;98374.19;4996601;28;20124;-56
2024/01/08 00:12:47;;;;;;;143.27;15.68;;;;;;;-1.98;100.00;98379.44;4996312;28;20036;-57
2024/01/08 00:15:12;;;;;;;110.03;13.00;;;;;;;-2.05;100.00;98382.44;5000662;28;20545;-60
2024/01/08 00:17:38;;;;;;;136.63;18.80;;;;;;;-1.94;100.00;98377.06;4997148;28;20610;-61
2024/01/08 00:20:04;;;;;;;59.90;10.95;;;;;;;-1.70;100.00;98383.41;4996248;28;20481;-57
2024/01/08 00:22:29;;;;;;;111.72;11.73;;;;;;;-1.71;100.00;98386.78;4998873;28;20475;-57
2024/01/08 00:24:54;;;;;;;64.45;22.02;;;;;;;-1.93;100.00;98382.22;5000613;28;20113;-57
2024/01/08 00:27:20;;;;;;;104.78;37.47;;;;;;;-2.16;100.00;98374.22;4997936;28;20070;-58
2024/01/08 00:29:45;;;;;;;185.65;13.80;;;;;;;-1.71;100.00;98376.56;4997825;28;20041;-61
2024/01/08 00:32:10;;;;;;;70.85;9.85;;;;;;;-1.79;100.00;98377.84;5004812;28;20133;-58
2024/01/08 00:34:36;;;;;;;96.28;16.52;;;;;;;-1.75;100.00;98373.78;5002326;28;20350;-60
2024/01/08 00:37:02;;;;;;;155.93;44.38;;;;;;;-1.72;100.00;98379.03;4998669;28;20521;-56
2024/01/08 00:39:28;;;;;;;169.07;59.95;;;;;;;-1.74;100.00;98376.41;5002930;28;20715;-61
2024/01/08 00:41:53;;;;;;;158.82;22.30;;;;;;;-1.86;100.00;98383.41;5002275;28;20071;-58
2024/01/08 00:44:19;;;;;;;134.43;38.28;;;;;;;-1.86;100.00;98375.75;5006362;28;20033;-58
2024/01/08 00:46:44;;;;;;;145.70;15.80;;;;;;;-1.84;100.00;98380.16;5000080;28;20152;-58
2024/01/08 00:49:10;;;;;;;77.63;7.88;;;;;;;-1.78;100.00;98371.06;5002518;28;20445;-56
2024/01/08 00:51:35;;;;;;;116.72;10.30;;;;;;;-1.66;100.00;98375.94;4999660;28;20492;-56
2024/01/08 00:54:01;;;;;;;96.03;18.30;;;;;;;-1.75;100.00;98377.19;5001403;28;20478;-57
2024/01/08 00:56:26;;;;;;;69.80;15.32;;;;;;;-2.03;100.00;98390.19;5001873;28;20399;-57
2024/01/08 00:58:51;;;;;;;174.13;32.17;;;;;;;-2.14;100.00;98379.41;5003294;28;20076;-57
2024/01/08 01:01:17;;;;;;;120.82;60.33;;;;;;;-2.01;100.00;98379.25;4999665;28;20509;-56
2024/01/08 01:03:42;;;;;;;157.68;12.52;;;;;;;-2.10;100.00;98382.22;4999448;28;20137;-60
2024/01/08 01:06:07;;;;;;;136.23;10.20;;;;;;;-1.92;100.00;98381.44;4998862;28;20037;-60
2024/01/08 01:08:33;;;;;;;254.07;128.45;;;;;;;-2.06;100.00;98388.34;4996732;28;20034;-59
2024/01/08 01:10:59;;;;;;;107.07;29.63;;;;;;;-2.08;100.00;98383.97;4995956;28;20058;-59
2024/01/08 01:13:24;;;;;;;194.93;70.75;;;;;;;-2.14;100.00;98389.59;4997729;28;20104;-59
2024/01/08 01:15:50;;;;;;;136.07;29.58;;;;;;;-1.94;100.00;98385.56;4995703;28;20309;-60
2024/01/08 01:18:15;;;;;;;100.78;14.55;;;;;;;-1.93;100.00;98386.44;4997777;28;20033;-60
2024/01/08 01:20:40;;;;;;;169.73;56.38;;;;;;;-1.87;100.00;98399.50;4999523;28;20074;-61
2024/01/08 01:23:06;;;;;;;122.20;12.95;;;;;;;-2.01;100.00;98394.56;5000691;28;20211;-58
2024/01/08 01:25:31;;;;;;;170.35;18.95;;;;;;;-2.06;100.00;98392.56;4997551;28;20461;-60
2024/01/08 01:27:56;;;;;;;241.25;127.63;;;;;;;-1.99;100.00;98394.66;4998713;28;20442;-58
2024/01/08 01:30:22;;;;;;;123.18;43.60;;;;;;;-2.14;100.00;98393.06;5000933;28;20108;-59
2024/01/08 01:32:47;;;;;;;122.72;10.55;;;;;;;-1.86;100.00;98402.16;5001078;28;20013;-58
2024/01/08 01:35:13;;;;;;;156.93;24.55;;;;;;;-2.11;100.00;98403.38;4999459;28;20045;-59
2024/01/08 01:37:41;;;;;;;110.63;10.25;;;;;;;-1.99;100.00;98405.72;4995757;28;20037;-60
2024/01/08 01:40:08;;;;;;;106.10;9.65;;;;;;;-1.77;100.00;98401.75;4995570;28;20037;-60
2024/01/08 01:42:33;;;;;;;159.57;26.17;;;;;;;-1.78;100.00;98405.09;4997942;28;20025;-59
2024/01/08 01:44:59;;;;;;;157.95;49.97;;;;;;;-1.79;100.00;98405.03;4997210;28;20375;-58
2024/01/08 01:47:24;;;;;;;98.00;8.27;;;;;;;-1.53;100.00;98396.16;4999775;28;20038;-61
2024/01/08 01:49:50;;;;;;;140.85;12.55;;;;;;;-1.34;100.00;98397.97;4996560;28;20421;-58
2024/01/08 01:52:16;;;;;;;93.45;9.77;;;;;;;-1.27;100.00;98401.72;4998537;28;20088;-57
2024/01/08 01:54:42;;;;;;;138.43;20.15;;;;;;;-1.39;100.00;98393.44;4998620;28;20026;-57
2024/01/08 01:57:08;;;;;;;110.00;12.75;;;;;;;-1.55;100.00;98400.31;4999178;28;20046;-58
2024/01/08 01:59:33;;;;;;;185.65;22.63;;;;;;;-1.57;100.00;98395.13;4997322;28;20330;-59
2024/01/08 02:02:00;;;;;;;101.32;10.60;;;;;;;-1.79;100.00;98398.25;4996480;28;20133;-58
2024/01/08 02:04:29;;;;;;;125.63;10.93;;;;;;;-1.47;100.00;98398.16;4999810;28;20516;-58
2024/01/08 02:06:56;;;;;;;150.40;11.95;;;;;;;-1.67;100.00;98399.69;4995759;28;20080;-59
2024/01/08 02:09:22;;;;;;;273.25;86.30;;;;;;;-2.12;100.00;98398.19;5000153;28;20045;-59
2024/01/08 02:11:47;;;;;;;154.32;29.88;;;;;;;-1.94;100.00;98403.41;4997938;28;20034;-59
2024/01/08 02:14:13;;;;;;;113.25;21.13;;;;;;;-2.20;100.00;98400.34;4998234;28;20041;-57
2024/01/08 02:16:39;;;;;;;155.18;56.50;;;;;;;-2.21;100.00;98398.59;4993839;28;20129;-59
2024/01/08 02:19:05;;;;;;;230.63;131.43;;;;;;;-2.34;100.00;98396.19;4997000;28;20022;-57
2024/01/08 02:21:30;;;;;;;163.48;51.35;;;;;;;-2.30;100.00;98398.09;4997897;28;20061;-57
2024/01/08 02:23:56;;;;;;;192.02;99.53;;;;;;;-2.37;100.00;98391.81;4994225;28;20252;-60
2024/01/08 02:26:21;;;;;;;118.20;27.42;;;;;;;-2.18;100.00;98408.97;4998071;28;20541;-58
2024/01/08 02:28:47;;;;;;;214.88;126.30;;;;;;;-2.45;100.00;98408.34;4996910;28;20299;-64
2024/01/08 02:31:12;;;;;;;134.75;24.95;;;;;;;-2.29;100.00;98403.28;4998904;28;20044;-61
2024/01/08 02:33:37;;;;;;;170.90;79.38;;;;;;;-2.31;100.00;98392.13;4999070;28;20704;-57
2024/01/08 02:36:03;;;;;;;133.45;72.78;;;;;;;-2.24;100.00;98393.34;4992602;28;20041;-58
2024/01/08 02:38:28;;;;;;;108.68;26.80;;;;;;;-2.17;100.00;98399.63;4997157;28;20151;-60
2024/01/08 02:40:54;;;;;;;157.52;12.07;;;;;;;-1.96;100.00;98405.03;4992843;28;20156;-58
2024/01/08 02:43:19;;;;;;;92.78;9.10;;;;;;;-1.98;100.00;98396.41;4998716;28;20018;-59
2024/01/08 02:45:44;;;;;;;137.60;24.33;;;;;;;-1.93;100.00;98404.31;4996735;28;20314;-59
2024/01/08 02:48:10;;;;;;;108.97;12.82;;;;;;;-2.12;100.00;98403.28;4996986;28;20021;-59
2024/01/08 02:50:35;;;;;;;110.20;13.30;;;;;;;-1.80;100.00;98398.16;4994980;28;20049;-58
2024/01/08 02:53:01;;;;;;;136.85;40.40;;;;;;;-1.82;100.00;98413.38;4998128;28;20026;-57
2024/01/08 02:55:26;;;;;;;156.25;29.38;;;;;;;-2.07;100.00;98413.75;4995667;28;20113;-59
2024/01/08 02:57:51;;;;;;;133.07;20.60;;;;;;;-2.19;100.00;98417.38;4996708;28;20116;-58
2024/01/08 03:00:17;;;;;;;156.38;64.50;;;;;;;-1.90;100.00;98412.13;4998264;28;20068;-60
2024/01/08 03:02:42;;;;;;;181.80;65.68;;;;;;;-1.93;100.00;98417.03;4996105;28;20321;-59
2024/01/08 03:05:08;;;;;;;129.70;10.30;;;;;;;-1.91;100.00;98421.44;4993860;28;20061;-58
2024/01/08 03:07:33;;;;;;;136.07;13.35;;;;;;;-2.23;100.00;98420.56;4998369;28;20461;-63
2024/01/08 03:09:59;;;;;;;165.90;30.13;;;;;;;-2.30;100.00;98423.59;4996327;28;20124;-57
2024/01/08 03:12:25;;;;;;;100.78;12.35;;;;;;;-2.10;100.00;98424.66;4993680;28;20037;-58
2024/01/08 03:14:51;;;;;;;146.85;24.90;;;;;;;-2.38;100.00;98413.84;4997706;28;20061;-57
2024/01/08 03:17:17;;;;;;;155.02;54.30;;;;;;;-2.40;100.00;98423.09;4996242;28;20045;-57
2024/01/08 03:19:42;;;;;;;230.18;92.82;;;;;;;-2.37;100.00;98423.25;4994067;28;20030;-59
2024/01/08 03:22:07;;;;;;;111.65;17.15;;;;;;;-2.42;100.00;98428.91;4994413;28;20037;-58
2024/01/08 03:24:34;;;;;;;187.80;43.72;;;;;;;-2.50;100.00;98433.53;4998885;28;20072;-58
2024/01/08 03:27:00;;;;;;;133.60;10.40;;;;;;;-2.44;100.00;98435.56;4992990;28;20452;-57
2024/01/08 03:29:25;;;;;;;140.75;29.67;;;;;;;-2.43;100.00;98433.09;4997994;28;21025;-58
2024/01/08 03:31:50;;;;;;;154.77;26.15;;;;;;;-2.52;100.00;98428.34;4995827;28;20039;-57
2024/01/08 03:34:16;;;;;;;109.30;12.23;;;;;;;-2.54;100.00;98439.25;4994996;28;20030;-61
2024/01/08 03:36:48;;;;;;;109.45;9.15;;;;;;;-2.33;100.00;98434.50;4993832;28;20042;-58
2024/01/08 03:39:17;;;;;;;120.50;9.02;;;;;;;-2.38;100.00;98430.78;4996515;28;20037;-58
2024/01/08 03:41:43;;;;;;;110.97;17.08;;;;;;;-2.27;100.00;98433.97;4991056;28;20044;-59
2024/01/08 03:44:09;;;;;;;162.32;31.20;;;;;;;-2.27;100.00;98434.81;4996314;28;20215;-58
2024/01/08 03:46:35;;;;;;;99.43;7.75;;;;;;;-2.12;100.00;98433.88;4995028;28;20650;-59
2024/01/08 03:49:02;;;;;;;120.63;11.23;;;;;;;-2.08;100.00;98435.81;4998618;28;20026;-60
2024/01/08 03:51:28;;;;;;;116.80;9.65;;;;;;;-2.23;100.00;98446.94;4995237;28;20026;-57
2024/01/08 03:53:53;;;;;;;106.03;22.15;;;;;;;-2.19;100.00;98435.22;4994858;28;20408;-56
2024/01/08 03:56:18;;;;;;;92.55;8.02;;;;;;;-2.16;100.00;98444.75;4995330;28;20121;-56
2024/01/08 03:58:44;;;;;;;171.30;28.98;;;;;;;-2.49;100.00;98441.28;4999276;28;20025;-58
2024/01/08 04:01:09;;;;;;;133.50;41.65;;;;;;;-2.61;100.00;98450.78;4997356;28;20103;-59
2024/01/08 04:03:35;;;;;;;113.15;24.05;;;;;;;-2.74;100.00;98459.41;4999038;28;20106;-59
2024/01/08 04:06:00;;;;;;;175.55;27.48;;;;;;;-2.77;100.00;98447.38;4997249;28;20534;-57
2024/01/08 04:08:25;;;;;;;94.10;8.88;;;;;;;-2.69;100.00;98460.53;5002640;28;20065;-56
2024/01/08 04:10:51;;;;;;;259.27;122.18;;;;;;;-2.94;100.00;98455.72;4997643;28;20426;-58
2024/01/08 04:13:16;;;;;;;187.30;92.70;;;;;;;-3.05;100.00;98450.88;4997471;28;20148;-57
2024/01/08 04:15:41;;;;;;;193.20;66.40;;;;;;;-3.13;100.00;98452.09;4997797;28;20046;-57
2024/01/08 04:18:08;;;;;;;153.57;58.15;;;;;;;-3.22;100.00;98459.19;4998168;28;20666;-57
2024/01/08 04:20:33;;;;;;;142.52;20.73;;;;;;;-3.12;100.00;98452.97;4999429;28;20070;-56
2024/01/08 04:22:59;;;;;;;145.80;10.90;;;;;;;-2.92;100.00;98456.69;4998762;28;20108;-58
2024/01/08 04:25:24;;;;;;;159.80;73.32;;;;;;;-2.92;100.00;98471.94;4999194;28;20025;-57
2024/01/08 04:27:49;;;;;;;216.35;75.75;;;;;;;-3.02;100.00;98476.50;5000619;28;20125;-58
2024/01/08 04:30:15;;;;;;;156.40;52.03;;;;;;;-2.91;100.00;98464.41;4999820;28;20433;-58
2024/01/08 04:32:40;;;;;;;182.35;89.35;;;;;;;-3.10;100.00;98465.00;5002483;28;20021;-58
2024/01/08 04:35:06;;;;;;;260.92;102.53;;;;;;;-2.99;100.00;98469.81;4998320;28;20033;-57
2024/01/08 04:37:31;;;;;;;174.07;56.55;;;;;;;-3.09;100.00;98459.13;4998886;28;20132;-60
2024/01/08 04:39:57;;;;;;;132.45;10.50;;;;;;;-148.24;100.00;61531.34;4998244;28;20022;-56
2024/01/08 04:42:22;;;;;;;130.15;33.85;;;;;;;-148.24;100.00;61531.34;4998202;28;20717;-58
2024/01/08 04:44:48;;;;;;;127.95;15.20;;;;;;;-148.24;100.00;61531.34;4995978;28;20548;-56
2024/01/08 04:47:13;;;;;;;101.00;7.57;;;;;;;-148.24;100.00;61531.34;4999305;28;20084;-57
2024/01/08 04:49:39;;;;;;;211.88;27.33;;;;;;;-148.24;100.00;61531.34;4996912;28;20112;-60
2024/01/08 04:52:05;;;;;;;147.40;53.60;;;;;;;-148.24;100.00;61531.34;4999435;28;20708;-60
2024/01/08 04:54:30;;;;;;;138.85;39.03;;;;;;;-148.24;100.00;61531.34;5000631;28;20177;-59
2024/01/08 04:56:56;;;;;;;175.60;17.75;;;;;;;-148.24;100.00;61531.34;4993942;28;20046;-56
2024/01/08 04:59:23;;;;;;;161.50;70.97;;;;;;;-148.24;100.00;61531.34;5002482;28;20437;-57
2024/01/08 05:01:49;;;;;;;129.18;22.70;;;;;;;-148.24;100.00;61531.34;4999868;28;20042;-59
2024/01/08 05:04:14;;;;;;;174.55;47.13;;;;;;;-148.24;100.00;61531.34;4999765;28;20470;-58
2024/01/08 05:06:40;;;;;;;158.93;46.38;;;;;;;-148.24;100.00;61531.34;4998805;28;20044;-57
2024/01/08 05:09:05;;;;;;;159.68;57.90;;;;;;;-148.24;100.00;61531.34;5003199;28;20108;-57
2024/01/08 05:11:30;;;;;;;169.13;36.50;;;;;;;-148.24;100.00;61531.34;4997080;28;20037;-58
2024/01/08 05:13:56;;;;;;;173.00;47.60;;;;;;;-148.24;100.00;61531.34;4993788;28;20025;-58
2024/01/08 05:16:21;;;;;;;80.93;31.40;;;;;;;-148.24;100.00;61531.34;4999974;28;20038;-59
2024/01/08 05:18:47;;;;;;;121.22;12.40;;;;;;;-148.24;100.00;61531.34;4999114;28;20047;-58
2024/01/08 05:21:15;;;;;;;118.53;16.17;;;;;;;-148.24;100.00;61531.34;4996510;28;20076;-59
2024/01/08 05:23:41;;;;;;;101.40;9.88;;;;;;;-148.24;100.00;61531.34;5001406;28;20017;-57
2024/01/08 05:26:06;;;;;;;177.65;45.85;;;;;;;-148.24;100.00;61531.34;4997457;28;20049;-59
2024/01/08 05:28:32;;;;;;;114.80;9.90;;;;;;;-148.24;100.00;61531.34;5000503;28;20029;-60
2024/01/08 05:30:57;;;;;;;137.55;10.25;;;;;;;-148.24;100.00;61531.34;4998140;28;20042;-61
2024/01/08 05:33:23;;;;;;;120.75;13.05;;;;;;;-148.24;100.00;61531.34;4999320;28;20028;-61
2024/01/08 05:35:48;;;;;;;99.28;10.65;;;;;;;-148.24;100.00;61531.34;4998172;28;20053;-60
2024/01/08 05:38:13;;;;;;;142.77;21.90;;;;;;;-148.24;100.00;61531.34;5000708;28;20026;-59
2024/01/08 05:40:39;;;;;;;145.63;14.25;;;;;;;-148.24;100.00;61531.34;4996646;28;20045;-60
2024/01/08 05:43:04;;;;;;;136.35;12.55;;;;;;;-148.24;100.00;61531.34;5000411;28;20026;-61
2024/01/08 05:45:30;;;;;;;150.18;12.20;;;;;;;-148.24;100.00;61531.34;4995363;28;20203;-56
2024/01/08 05:47:56;;;;;;;297.63;140.77;;;;;;;-148.24;100.00;61531.34;4995999;28;20073;-56
2024/01/08 05:50:25;;;;;;;88.88;10.18;;;;;;;-148.24;100.00;61531.34;4995758;28;20435;-59
2024/01/08 05:52:51;;;;;;;121.35;19.73;;;;;;;-148.24;100.00;61531.34;4996773;28;20025;-57
2024/01/08 05:55:16;;;;;;;179.95;57.10;;;;;;;-148.24;100.00;61531.34;4998115;28;20312;-59
2024/01/08 05:57:42;;;;;;;120.07;41.72;;;;;;;-148.24;100.00;61531.34;4996115;28;20025;-58
2024/01/08 06:00:07;;;;;;;210.15;93.03;;;;;;;-148.24;100.00;61531.34;4996734;28;20030;-57
2024/01/08 06:02:33;;;;;;;162.63;49.70;;;;;;;-148.24;100.00;61531.34;4998124;28;20022;-57
2024/01/08 06:04:58;;;;;;;213.63;103.70;;;;;;;-148.24;100.00;61531.34;4997555;28;20423;-57
2024/01/08 06:07:23;;;;;;;108.65;21.00;;;;;;;-148.24;100.00;61531.34;4998459;28;20529;-60
2024/01/08 06:09:49;;;;;;;149.00;28.33;;;;;;;-148.24;100.00;61531.34;4996809;28;20598;-57
2024/01/08 06:12:14;;;;;;;119.35;24.45;;;;;;;-148.24;100.00;61531.34;4999182;28;20068;-59
2024/01/08 06:14:41;;;;;;;197.77;78.53;;;;;;;-148.24;100.00;61531.34;4999937;28;20026;-57
2024/01/08 06:17:10;;;;;;;171.05;11.00;;;;;;;-148.24;100.00;61531.34;4996119;28;20056;-59
2024/01/08 06:19:35;;;;;;;164.65;10.45;;;;;;;-148.24;100.00;61531.34;4995176;28;20080;-58
2024/01/08 06:22:01;;;;;;;134.38;14.45;;;;;;;-148.24;100.00;61531.34;4994902;28;20050;-59
2024/01/08 06:24:26;;;;;;;214.60;86.13;;;;;;;-148.24;100.00;61531.34;4997456;28;20382;-56
2024/01/08 06:26:51;;;;;;;124.82;17.77;;;;;;;-148.24;100.00;61531.34;4992801;28;20046;-59
2024/01/08 06:29:16;;;;;;;103.55;10.70;;;;;;;-148.24;100.00;61531.34;4998778;28;20021;-57
2024/01/08 06:31:43;;;;;;;138.25;20.52;;;;;;;-148.24;100.00;61531.34;4997725;28;20528;-59
2024/01/08 06:34:08;;;;;;;126.68;9.48;;;;;;;-148.24;100.00;61531.34;4995787;28;20191;-57
2024/01/08 06:36:34;;;;;;;100.47;10.85;;;;;;;-148.24;100.00;61531.34;4997235;28;20045;-58
2024/01/08 06:39:00;;;;;;;201.68;32.50;;;;;;;-148.24;100.00;61531.34;4997662;28;20152;-59
2024/01/08 06:41:26;;;;;;;102.53;8.82;;;;;;;-148.24;100.00;61531.34;4997224;28;20038;-59
2024/01/08 06:43:51;;;;;;;121.47;23.00;;;;;;;-148.24;100.00;61531.34;4993405;28;20030;-61
2024/01/08 06:46:17;;;;;;;131.95;12.20;;;;;;;-148.24;100.00;61531.34;4996924;28;20130;-62
2024/01/08 06:48:42;;;;;;;122.82;13.00;;;;;;;-148.24;100.00;61531.34;4999244;28;20029;-61
2024/01/08 06:51:08;;;;;;;154.95;11.18;;;;;;;-148.24;100.00;61531.34;4991969;28;20054;-60
2024/01/08 06:53:33;;;;;;;132.38;8.85;;;;;;;-148.24;100.00;61531.34;4997755;28;20366;-61
2024/01/08 06:55:58;;;;;;;142.15;11.15;;;;;;;-148.24;100.00;61531.34;4994323;28;20537;-61
2024/01/08 06:58:24;;;;;;;99.50;9.55;;;;;;;-148.24;100.00;61531.34;4996902;28;20120;-61
2024/01/08 07:00:49;;;;;;;193.00;69.20;;;;;;;-148.24;100.00;61531.34;4995383;28;20045;-58
2024/01/08 07:03:15;;;;;;;94.93;7.82;;;;;;;-148.24;100.00;61531.34;4996271;28;20038;-62
2024/01/08 07:05:41;;;;;;;150.25;11.07;;;;;;;-148.24;100.00;61531.34;4994465;28;20030;-59
2024/01/08 07:08:07;;;;;;;151.15;15.40;;;;;;;-148.24;100.00;61531.34;4994439;28;20449;-61
2024/01/08 07:10:34;;;;;;;115.93;9.15;;;;;;;-148.24;100.00;61531.34;4997183;28;20409;-61
2024/01/08 07:12:59;;;;;;;135.35;9.35;;;;;;;-148.24;100.00;61531.34;4996846;28;20087;-61
2024/01/08 07:15:45;;;;;;;125.38;11.57;;;;;;;-148.24;100.00;61531.34;4997809;28;20030;-61
2024/01/08 07:18:11;;;;;;;113.03;9.07;;;;;;;-148.24;100.00;61531.34;4993279;28;20896;-61
2024/01/08 07:20:37;;;;;;;132.65;10.07;;;;;;;-148.24;100.00;61531.34;4996222;28;20049;-62
2024/01/08 07:23:08;;;;;;;153.80;11.63;;;;;;;-148.24;100.00;61531.34;4997113;28;20025;-57
2024/01/08 07:25:37;;;;;;;140.38;9.82;;;;;;;-148.24;100.00;61531.34;4993549;28;20136;-59
2024/01/08 07:28:05;;;;;;;163.02;12.02;;;;;;;-148.24;100.00;61531.34;4994335;28;20109;-60
2024/01/08 07:30:31;;;;;;;118.65;9.00;;;;;;;-148.24;100.00;61531.34;4997801;28;20061;-59
2024/01/08 07:32:56;;;;;;;161.43;10.45;;;;;;;-148.24;100.00;61531.34;5000297;28;20459;-61
2024/01/08 07:35:22;;;;;;;104.82;22.95;;;;;;;-148.24;100.00;61531.34;5000587;28;20029;-62
2024/01/08 07:37:51;;;;;;;102.07;13.02;;;;;;;-148.24;100.00;61531.34;5002192;28;20137;-61
2024/01/08 07:40:16;;;;;;;144.10;12.15;;;;;;;-148.24;100.00;61531.34;4997357;28;20056;-61
2024/01/08 07:42:42;;;;;;;120.90;9.18;;;;;;;-148.24;100.00;61531.34;5003570;28;20439;-62
2024/01/08 07:45:08;;;;;;;174.40;16.83;;;;;;;-148.24;100.00;61531.34;5000857;28;20403;-59
2024/01/08 07:47:33;;;;;;;145.88;29.77;;;;;;;-148.24;100.00;61531.34;4998217;28;20438;-61
2024/01/08 07:50:00;;;;;;;116.05;12.75;;;;;;;-148.24;100.00;61531.34;4999463;28;20021;-59
2024/01/08 07:52:25;;;;;;;107.82;10.23;;;;;;;-148.24;100.00;61531.34;5000829;28;20551;-60
2024/01/08 07:54:50;;;;;;;129.00;16.75;;;;;;;-148.24;100.00;61531.34;4999409;28;20029;-58
2024/01/08 07:57:16;;;;;;;136.18;32.30;;;;;;;-148.24;100.00;61531.34;4994288;28;20370;-59
2024/01/08 07:59:41;;;;;;;165.32;15.70;;;;;;;-148.24;100.00;61531.34;4998737;28;20632;-58
2024/01/08 08:02:06;;;;;;;229.38;68.00;;;;;;;-148.24;100.00;61531.34;4997423;28;20492;-60
2024/01/08 08:04:32;;;;;;;160.93;53.22;;;;;;;-148.24;100.00;61531.34;5004768;28;20082;-59
2024/01/08 08:06:57;;;;;;;139.25;20.67;;;;;;;-148.24;100.00;61531.34;5001032;28;20072;-60
2024/01/08 08:09:22;;;;;;;114.85;24.77;;;;;;;-148.24;100.00;61531.34;5001257;28;20044;-59
2024/01/08 08:11:48;;;;;;;147.55;44.70;;;;;;;-148.24;100.00;61531.34;4999729;28;20040;-58
2024/01/08 08:14:13;;;;;;;100.38;9.55;;;;;;;-148.24;100.00;61531.34;4998071;28;20502;-58
2024/01/08 08:16:39;;;;;;;106.65;18.25;;;;;;;-148.24;100.00;61531.34;4999304;28;20752;-59
2024/01/08 08:19:04;;;;;;;172.23;28.00;;;;;;;-148.24;100.00;61531.34;4998269;28;20306;-59
2024/01/08 08:21:30;;;;;;;111.32;15.65;;;;;;;-148.24;100.00;61531.34;4995343;28;20034;-58
2024/01/08 08:23:57;;;;;;;130.20;12.40;;;;;;;-148.24;100.00;61531.34;4996719;28;20026;-60
2024/01/08 08:26:23;;;;;;;99.32;14.90;;;;;;;-148.24;100.00;61531.34;4999808;28;20045;-59
2024/01/08 08:28:48;;;;;;;104.38;17.63;;;;;;;-148.24;100.00;61531.34;5003109;28;20021;-58
2024/01/08 08:31:14;;;;;;;153.32;41.97;;;;;;;-148.24;100.00;61531.34;4999289;28;20030;-60
2024/01/08 08:33:41;;;;;;;121.53;17.25;;;;;;;-148.24;100.00;61531.34;5004248;28;20427;-60
2024/01/08 08:36:07;;;;;;;211.45;68.07;;;;;;;-148.24;100.00;61531.34;5002538;28;20060;-59
2024/01/08 08:38:34;;;;;;;152.40;30.48;;;;;;;-148.24;100.00;61531.34;4998011;28;20428;-60
2024/01/08 08:40:59;;;;;;;193.90;45.58;;;;;;;-148.24;100.00;61531.34;4997002;28;20046;-58
2024/01/08 08:43:25;;;;;;;144.48;44.25;;;;;;;-148.24;100.00;61531.34;4996380;28;20433;-58
2024/01/08 08:45:50;;;;;;;120.88;9.70;;;;;;;-148.24;100.00;61531.34;4997695;28;20041;-58
2024/01/08 08:48:16;;;;;;;149.60;66.28;;;;;;;-148.24;100.00;61531.34;4998924;28;20076;-60
2024/01/08 08:50:41;;;;;;;142.55;22.80;;;;;;;-148.24;100.00;61531.34;4995795;28;20041;-60
2024/01/08 08:53:06;;;;;;;176.27;27.38;;;;;;;-148.24;100.00;61531.34;4999308;28;20539;-60
2024/01/08 08:55:32;;;;;;;180.05;31.27;;;;;;;-148.24;100.00;61531.34;4996655;28;20573;-58
2024/01/08 08:57:57;;;;;;;357.65;244.35;;;;;;;-148.24;100.00;61531.34;4994529;28;20076;-60
2024/01/08 09:00:22;;;;;;;121.97;11.32;;;;;;;-148.24;100.00;61531.34;4996992;28;20026;-59
2024/01/08 09:02:50;;;;;;;108.05;10.02;;;;;;;-148.24;100.00;61531.34;4990157;28;20368;-60
2024/01/08 09:05:15;;;;;;;98.95;18.73;;;;;;;-148.24;100.00;61531.34;4999257;28;20017;-60
2024/01/08 09:07:40;;;;;;;83.65;7.88;;;;;;;-148.24;100.00;61531.34;5000554;28;20025;-59
2024/01/08 09:10:06;;;;;;;154.25;19.23;;;;;;;-148.24;100.00;61531.34;4995630;28;20049;-59
2024/01/08 09:12:32;;;;;;;103.43;15.98;;;;;;;-148.24;100.00;61531.34;5002844;28;20811;-58
2024/01/08 09:14:57;;;;;;;121.30;35.97;;;;;;;-148.24;100.00;61531.34;5001697;28;20033;-58
2024/01/08 09:17:22;;;;;;;115.68;17.08;;;;;;;-148.24;100.00;61531.34;4999912;28;20199;-58
2024/01/08 09:19:52;;;;;;;72.15;7.95;;;;;;;-148.24;100.00;61531.34;4999229;28;20502;-59
2024/01/08 09:22:17;;;;;;;95.32;10.38;;;;;;;-148.24;100.00;61531.34;4999788;28;20042;-59
2024/01/08 09:24:42;;;;;;;116.97;8.80;;;;;;;-148.24;100.00;61531.34;5000816;28;20170;-59
2024/01/08 09:27:08;;;;;;;125.72;17.10;;;;;;;-148.24;100.00;61531.34;5003083;28;20309;-60
2024/01/08 09:29:33;;;;;;;170.80;17.40;;;;;;;-148.24;100.00;61531.34;5002440;28;20455;-59
2024/01/08 09:31:58;;;;;;;106.00;9.45;;;;;;;-148.24;100.00;61531.34;4998206;28;20242;-58
2024/01/08 09:34:24;;;;;;;88.80;7.35;;;;;;;-148.24;100.00;61531.34;5001797;28;20081;-58
2024/01/08 09:36:50;;;;;;;105.47;11.68;;;;;;;-148.24;100.00;61531.34;5000552;28;20555;-58
2024/01/08 09:39:15;;;;;;;148.02;15.43;;;;;;;-148.24;100.00;61531.34;4998766;28;20325;-60
2024/01/08 09:41:42;;;;;;;103.07;12.57;;;;;;;-148.24;100.00;61531.34;5001626;28;20034;-59
2024/01/08 09:44:12;;;;;;;162.57;15.90;;;;;;;-148.24;100.00;61531.34;5003383;28;20017;-58
2024/01/08 09:46:43;;;;;;;74.90;7.18;;;;;;;-148.24;100.00;61531.34;4999979;28;20033;-60
2024/01/08 09:49:11;;;;;;;118.10;10.38;;;;;;;-148.24;100.00;61531.34;5002651;28;20043;-60
2024/01/08 09:51:38;;;;;;;105.25;14.38;;;;;;;-148.24;100.00;61531.34;5002438;28;20040;-58
2024/01/08 09:54:04;;;;;;;135.10;13.80;;;;;;;-148.24;100.00;61531.34;4997827;28;20032;-58
2024/01/08 09:56:30;;;;;;;101.78;12.68;;;;;;;-148.24;100.00;61531.34;4999355;28;20149;-59
2024/01/08 09:58:56;;;;;;;176.10;54.08;;;;;;;-148.24;100.00;61531.34;5000060;28;20032;-58
2024/01/08 10:01:22;;;;;;;163.00;82.43;;;;;;;-148.24;100.00;61531.34;4996315;28;20038;-59
2024/01/08 10:03:47;;;;;;;148.00;60.00;;;;;;;-148.24;100.00;61531.34;5002705;28;20060;-60
2024/01/08 10:06:13;;;;;;;207.60;49.78;;;;;;;-148.24;100.00;61531.34;5001681;28;20033;-59
2024/01/08 10:08:38;;;;;;;304.27;159.27;;;;;;;-148.24;100.00;61531.34;4996052;28;20036;-59
2024/01/08 10:11:05;;;;;;;278.83;167.20;;;;;;;-148.24;100.00;61531.34;5001003;28;20030;-58
2024/01/08 10:13:30;;;;;;;161.25;32.13;;;;;;;-148.24;100.00;61531.34;5003019;28;20037;-60
2024/01/08 10:15:56;;;;;;;150.90;63.67;;;;;;;-148.24;100.00;61531.34;4999955;28;20108;-60
2024/01/08 10:18:23;;;;;;;138.43;78.95;;;;;;;-148.24;100.00;61531.34;5001325;28;20029;-59
2024/01/08 10:21:06;;;;;;;161.30;66.07;;;;;;;-148.24;100.00;61531.34;5000876;28;20038;-59
2024/01/08 10:23:31;;;;;;;137.65;43.80;;;;;;;-148.24;100.00;61531.34;4999311;28;20409;-59
2024/01/08 10:25:56;;;;;;;155.60;57.05;;;;;;;-148.24;100.00;61531.34;4997405;28;20049;-59
2024/01/08 10:28:22;;;;;;;156.88;103.90;;;;;;;-148.24;100.00;61531.34;4999411;28;20018;-59
2024/01/08 10:30:48;;;;;;;118.50;76.43;;;;;;;-148.24;100.00;61531.34;4997391;28;20038;-57
2024/01/08 10:33:13;;;;;;;220.18;75.75;;;;;;;-148.24;100.00;61531.34;4998512;28;20424;-60
2024/01/08 10:35:41;;;;;;;199.35;87.43;;;;;;;-148.24;100.00;61531.34;5000773;28;20477;-58
2024/01/08 10:38:06;;;;;;;270.90;125.25;;;;;;;-148.24;100.00;61531.34;4999554;28;20120;-60
2024/01/08 10:40:32;;;;;;;118.07;15.25;;;;;;;-148.24;100.00;61531.34;5000426;28;20036;-58
2024/01/08 10:42:57;;;;;;;67.10;9.77;;;;;;;-148.24;100.00;61531.34;5000654;28;20117;-60
2024/01/08 10:45:23;;;;;;;109.90;22.58;;;;;;;-148.24;100.00;61531.34;4998843;28;20024;-60
2024/01/08 10:47:51;;;;;;;98.90;16.75;;;;;;;-148.24;100.00;61531.34;4997546;28;20426;-59